sensor_id;sensor_type;location;lat;lon;timestamp;P1;durP1;ratioP1;P2;durP2;ratioP2
29574;SDS011;16507;51.046;6.406;2023-06-14T00:01:35;13.35;;;5.07;;
29574;SDS011;16507;51.046;6.406;2023-06-14T00:04:01;6.85;;;4.65;;
29574;SDS011;16507;51.046;6.406;2023-06-14T00:06:28;8.40;;;5.00;;
29574;SDS011;16507;51.046;6.406;2023-06-14T00:08:54;7.10;;;5.20;;
29574;SDS011;16507;51.046;6.406;2023-06-14T00:11:19;8.75;;;5.65;;
29574;SDS011;16507;51.046;6.406;2023-06-14T00:13:45;18.40;;;5.65;;
29574;SDS011;16507;51.046;6.406;2023-06-14T00:16:11;14.23;;;5.25;;
29574;SDS011;16507;51.046;6.406;2023-06-14T00:18:40;12.50;;;5.10;;
29574;SDS011;16507;51.046;6.406;2023-06-14T00:21:06;8.75;;;5.00;;
29574;SDS011;16507;51.046;6.406;2023-06-14T00:23:33;7.55;;;4.57;;
29574;SDS011;16507;51.046;6.406;2023-06-14T00:25:59;13.18;;;5.25;;
29574;SDS011;16507;51.046;6.406;2023-06-14T00:28:25;17.10;;;5.25;;
29574;SDS011;16507;51.046;6.406;2023-06-14T00:30:50;11.38;;;5.22;;
29574;SDS011;16507;51.046;6.406;2023-06-14T00:33:16;14.23;;;6.50;;
29574;SDS011;16507;51.046;6.406;2023-06-14T00:35:42;15.60;;;5.15;;
29574;SDS011;16507;51.046;6.406;2023-06-14T00:38:07;20.23;;;5.72;;
29574;SDS011;16507;51.046;6.406;2023-06-14T00:40:33;14.02;;;5.30;;
29574;SDS011;16507;51.046;6.406;2023-06-14T00:43:00;15.55;;;6.03;;
29574;SDS011;16507;51.046;6.406;2023-06-14T00:45:25;25.52;;;5.75;;
29574;SDS011;16507;51.046;6.406;2023-06-14T00:47:51;17.88;;;5.28;;
29574;SDS011;16507;51.046;6.406;2023-06-14T00:50:20;13.73;;;5.18;;
29574;SDS011;16507;51.046;6.406;2023-06-14T00:52:47;21.30;;;6.82;;
29574;SDS011;16507;51.046;6.406;2023-06-14T00:55:12;19.85;;;6.00;;
29574;SDS011;16507;51.046;6.406;2023-06-14T00:57:38;20.67;;;6.03;;
29574;SDS011;16507;51.046;6.406;2023-06-14T01:00:05;10.52;;;6.30;;
29574;SDS011;16507;51.046;6.406;2023-06-14T01:02:34;23.40;;;6.03;;
29574;SDS011;16507;51.046;6.406;2023-06-14T01:05:04;15.98;;;5.32;;
29574;SDS011;16507;51.046;6.406;2023-06-14T01:13:20;20.33;;;5.88;;
29574;SDS011;16507;51.046;6.406;2023-06-14T01:15:52;13.80;;;5.25;;
29574;SDS011;16507;51.046;6.406;2023-06-14T01:18:20;33.65;;;5.60;;
29574;SDS011;16507;51.046;6.406;2023-06-14T01:20:49;22.58;;;5.53;;
29574;SDS011;16507;51.046;6.406;2023-06-14T01:23:31;28.75;;;5.85;;
29574;SDS011;16507;51.046;6.406;2023-06-14T01:25:58;14.27;;;5.53;;
29574;SDS011;16507;51.046;6.406;2023-06-14T01:28:25;25.15;;;6.28;;
29574;SDS011;16507;51.046;6.406;2023-06-14T01:30:57;14.77;;;5.25;;
29574;SDS011;16507;51.046;6.406;2023-06-14T01:33:26;14.48;;;4.97;;
29574;SDS011;16507;51.046;6.406;2023-06-14T01:35:53;10.98;;;5.38;;
29574;SDS011;16507;51.046;6.406;2023-06-14T01:38:24;18.45;;;5.75;;
29574;SDS011;16507;51.046;6.406;2023-06-14T01:40:51;24.40;;;5.85;;
29574;SDS011;16507;51.046;6.406;2023-06-14T01:43:20;24.33;;;5.60;;
29574;SDS011;16507;51.046;6.406;2023-06-14T01:45:46;17.70;;;5.88;;
29574;SDS011;16507;51.046;6.406;2023-06-14T01:48:13;11.35;;;5.53;;
29574;SDS011;16507;51.046;6.406;2023-06-14T01:50:40;22.77;;;6.28;;
29574;SDS011;16507;51.046;6.406;2023-06-14T01:53:09;18.80;;;6.57;;
29574;SDS011;16507;51.046;6.406;2023-06-14T01:55:35;17.15;;;6.15;;
29574;SDS011;16507;51.046;6.406;2023-06-14T01:58:03;20.63;;;6.05;;
29574;SDS011;16507;51.046;6.406;2023-06-14T02:00:29;40.17;;;7.32;;
29574;SDS011;16507;51.046;6.406;2023-06-14T02:02:55;24.48;;;6.65;;
29574;SDS011;16507;51.046;6.406;2023-06-14T02:05:21;25.50;;;6.25;;
29574;SDS011;16507;51.046;6.406;2023-06-14T02:07:47;15.60;;;5.43;;
29574;SDS011;16507;51.046;6.406;2023-06-14T02:10:12;21.98;;;6.28;;
29574;SDS011;16507;51.046;6.406;2023-06-14T02:12:39;14.15;;;5.40;;
29574;SDS011;16507;51.046;6.406;2023-06-14T02:15:05;15.77;;;5.35;;
29574;SDS011;16507;51.046;6.406;2023-06-14T02:17:32;17.15;;;5.60;;
29574;SDS011;16507;51.046;6.406;2023-06-14T02:19:57;12.45;;;5.90;;
29574;SDS011;16507;51.046;6.406;2023-06-14T02:22:23;15.25;;;5.43;;
29574;SDS011;16507;51.046;6.406;2023-06-14T02:24:48;17.25;;;5.82;;
29574;SDS011;16507;51.046;6.406;2023-06-14T02:27:15;9.63;;;6.00;;
29574;SDS011;16507;51.046;6.406;2023-06-14T02:29:41;37.22;;;7.55;;
29574;SDS011;16507;51.046;6.406;2023-06-14T02:32:07;11.88;;;6.18;;
29574;SDS011;16507;51.046;6.406;2023-06-14T02:34:33;22.17;;;6.65;;
29574;SDS011;16507;51.046;6.406;2023-06-14T02:36:59;13.90;;;5.95;;
29574;SDS011;16507;51.046;6.406;2023-06-14T02:39:27;15.68;;;5.88;;
29574;SDS011;16507;51.046;6.406;2023-06-14T02:41:53;16.35;;;6.60;;
29574;SDS011;16507;51.046;6.406;2023-06-14T02:44:19;10.27;;;5.47;;
29574;SDS011;16507;51.046;6.406;2023-06-14T02:46:49;22.52;;;6.22;;
29574;SDS011;16507;51.046;6.406;2023-06-14T02:49:14;20.75;;;6.10;;
29574;SDS011;16507;51.046;6.406;2023-06-14T02:51:40;27.10;;;6.82;;
29574;SDS011;16507;51.046;6.406;2023-06-14T02:54:05;21.90;;;6.63;;
29574;SDS011;16507;51.046;6.406;2023-06-14T02:56:31;22.35;;;6.20;;
29574;SDS011;16507;51.046;6.406;2023-06-14T02:58:56;42.40;;;6.88;;
29574;SDS011;16507;51.046;6.406;2023-06-14T03:01:25;28.40;;;5.97;;
29574;SDS011;16507;51.046;6.406;2023-06-14T03:03:59;42.70;;;7.28;;
29574;SDS011;16507;51.046;6.406;2023-06-14T03:06:25;28.98;;;6.22;;
29574;SDS011;16507;51.046;6.406;2023-06-14T03:08:51;29.83;;;7.28;;
29574;SDS011;16507;51.046;6.406;2023-06-14T03:11:19;26.90;;;6.97;;
29574;SDS011;16507;51.046;6.406;2023-06-14T03:13:45;19.88;;;5.93;;
29574;SDS011;16507;51.046;6.406;2023-06-14T03:16:12;35.85;;;7.72;;
29574;SDS011;16507;51.046;6.406;2023-06-14T03:18:37;37.55;;;7.45;;
29574;SDS011;16507;51.046;6.406;2023-06-14T03:21:03;24.35;;;6.53;;
29574;SDS011;16507;51.046;6.406;2023-06-14T03:23:29;17.98;;;6.10;;
29574;SDS011;16507;51.046;6.406;2023-06-14T03:25:54;8.57;;;5.93;;
29574;SDS011;16507;51.046;6.406;2023-06-14T03:28:21;17.02;;;6.70;;
29574;SDS011;16507;51.046;6.406;2023-06-14T03:30:46;11.73;;;6.22;;
29574;SDS011;16507;51.046;6.406;2023-06-14T03:33:12;13.85;;;6.40;;
29574;SDS011;16507;51.046;6.406;2023-06-14T03:35:37;17.02;;;6.60;;
29574;SDS011;16507;51.046;6.406;2023-06-14T03:38:03;10.98;;;5.88;;
29574;SDS011;16507;51.046;6.406;2023-06-14T03:40:29;18.10;;;7.78;;
29574;SDS011;16507;51.046;6.406;2023-06-14T03:42:54;21.45;;;7.40;;
29574;SDS011;16507;51.046;6.406;2023-06-14T03:45:20;17.80;;;6.53;;
29574;SDS011;16507;51.046;6.406;2023-06-14T03:47:46;15.57;;;6.90;;
29574;SDS011;16507;51.046;6.406;2023-06-14T03:50:12;11.60;;;5.95;;
29574;SDS011;16507;51.046;6.406;2023-06-14T03:52:41;14.93;;;6.13;;
29574;SDS011;16507;51.046;6.406;2023-06-14T03:55:08;35.28;;;7.07;;
29574;SDS011;16507;51.046;6.406;2023-06-14T03:57:35;28.85;;;7.20;;
29574;SDS011;16507;51.046;6.406;2023-06-14T04:00:00;26.08;;;6.75;;
29574;SDS011;16507;51.046;6.406;2023-06-14T04:02:26;35.40;;;7.18;;
29574;SDS011;16507;51.046;6.406;2023-06-14T04:04:54;28.45;;;6.07;;
29574;SDS011;16507;51.046;6.406;2023-06-14T04:07:20;20.73;;;6.20;;
29574;SDS011;16507;51.046;6.406;2023-06-14T04:09:46;29.33;;;6.28;;
29574;SDS011;16507;51.046;6.406;2023-06-14T04:12:12;19.65;;;7.18;;
29574;SDS011;16507;51.046;6.406;2023-06-14T04:14:38;38.83;;;7.65;;
29574;SDS011;16507;51.046;6.406;2023-06-14T04:17:06;33.90;;;6.85;;
29574;SDS011;16507;51.046;6.406;2023-06-14T04:19:32;29.52;;;6.82;;
29574;SDS011;16507;51.046;6.406;2023-06-14T04:21:58;19.98;;;6.47;;
29574;SDS011;16507;51.046;6.406;2023-06-14T04:24:27;26.90;;;6.95;;
29574;SDS011;16507;51.046;6.406;2023-06-14T04:27:00;31.63;;;6.38;;
29574;SDS011;16507;51.046;6.406;2023-06-14T04:29:26;24.73;;;7.07;;
29574;SDS011;16507;51.046;6.406;2023-06-14T04:31:54;23.67;;;7.53;;
29574;SDS011;16507;51.046;6.406;2023-06-14T04:34:25;25.63;;;6.60;;
29574;SDS011;16507;51.046;6.406;2023-06-14T04:36:54;32.88;;;6.22;;
29574;SDS011;16507;51.046;6.406;2023-06-14T04:39:24;29.75;;;6.50;;
29574;SDS011;16507;51.046;6.406;2023-06-14T04:41:51;31.48;;;6.70;;
29574;SDS011;16507;51.046;6.406;2023-06-14T04:44:17;24.42;;;6.60;;
29574;SDS011;16507;51.046;6.406;2023-06-14T04:46:44;27.65;;;5.88;;
29574;SDS011;16507;51.046;6.406;2023-06-14T04:49:14;28.92;;;6.50;;
29574;SDS011;16507;51.046;6.406;2023-06-14T04:51:41;53.17;;;6.82;;
29574;SDS011;16507;51.046;6.406;2023-06-14T04:54:07;31.85;;;7.35;;
29574;SDS011;16507;51.046;6.406;2023-06-14T04:56:35;39.92;;;6.55;;
29574;SDS011;16507;51.046;6.406;2023-06-14T04:59:02;39.95;;;7.35;;
29574;SDS011;16507;51.046;6.406;2023-06-14T05:01:29;38.50;;;6.95;;
29574;SDS011;16507;51.046;6.406;2023-06-14T05:03:57;37.88;;;6.45;;
29574;SDS011;16507;51.046;6.406;2023-06-14T05:06:23;35.47;;;6.35;;
29574;SDS011;16507;51.046;6.406;2023-06-14T05:08:48;42.00;;;6.50;;
29574;SDS011;16507;51.046;6.406;2023-06-14T05:11:14;40.90;;;6.65;;
29574;SDS011;16507;51.046;6.406;2023-06-14T05:13:41;38.78;;;6.15;;
29574;SDS011;16507;51.046;6.406;2023-06-14T05:16:08;32.15;;;6.70;;
29574;SDS011;16507;51.046;6.406;2023-06-14T05:18:34;40.38;;;6.00;;
29574;SDS011;16507;51.046;6.406;2023-06-14T05:21:00;39.40;;;7.00;;
29574;SDS011;16507;51.046;6.406;2023-06-14T05:23:26;28.65;;;5.95;;
29574;SDS011;16507;51.046;6.406;2023-06-14T05:25:51;42.28;;;7.43;;
29574;SDS011;16507;51.046;6.406;2023-06-14T05:28:18;35.95;;;6.35;;
29574;SDS011;16507;51.046;6.406;2023-06-14T05:30:43;25.20;;;6.53;;
29574;SDS011;16507;51.046;6.406;2023-06-14T05:33:09;43.95;;;6.25;;
29574;SDS011;16507;51.046;6.406;2023-06-14T05:35:34;35.60;;;6.53;;
29574;SDS011;16507;51.046;6.406;2023-06-14T05:38:00;33.67;;;6.20;;
29574;SDS011;16507;51.046;6.406;2023-06-14T05:40:26;27.15;;;6.72;;
29574;SDS011;16507;51.046;6.406;2023-06-14T05:42:51;42.35;;;6.53;;
29574;SDS011;16507;51.046;6.406;2023-06-14T05:45:17;41.22;;;5.95;;
29574;SDS011;16507;51.046;6.406;2023-06-14T05:47:43;25.13;;;6.55;;
29574;SDS011;16507;51.046;6.406;2023-06-14T05:50:08;23.45;;;5.65;;
29574;SDS011;16507;51.046;6.406;2023-06-14T05:52:34;19.02;;;4.93;;
29574;SDS011;16507;51.046;6.406;2023-06-14T05:55:03;25.38;;;5.68;;
29574;SDS011;16507;51.046;6.406;2023-06-14T05:57:30;18.95;;;4.72;;
29574;SDS011;16507;51.046;6.406;2023-06-14T05:59:55;27.30;;;5.85;;
29574;SDS011;16507;51.046;6.406;2023-06-14T06:02:21;9.95;;;4.68;;
29574;SDS011;16507;51.046;6.406;2023-06-14T06:04:46;7.20;;;4.45;;
29574;SDS011;16507;51.046;6.406;2023-06-14T06:07:12;13.88;;;5.38;;
29574;SDS011;16507;51.046;6.406;2023-06-14T06:09:38;17.20;;;4.80;;
29574;SDS011;16507;51.046;6.406;2023-06-14T06:12:05;25.35;;;5.50;;
29574;SDS011;16507;51.046;6.406;2023-06-14T06:14:32;21.25;;;5.35;;
29574;SDS011;16507;51.046;6.406;2023-06-14T06:16:57;12.65;;;4.93;;
29574;SDS011;16507;51.046;6.406;2023-06-14T06:19:24;23.92;;;4.85;;
29574;SDS011;16507;51.046;6.406;2023-06-14T06:21:49;28.25;;;5.65;;
29574;SDS011;16507;51.046;6.406;2023-06-14T06:24:15;34.60;;;5.00;;
29574;SDS011;16507;51.046;6.406;2023-06-14T06:26:41;14.70;;;5.10;;
29574;SDS011;16507;51.046;6.406;2023-06-14T06:29:07;14.48;;;4.60;;
29574;SDS011;16507;51.046;6.406;2023-06-14T06:31:32;10.90;;;4.65;;
29574;SDS011;16507;51.046;6.406;2023-06-14T06:33:58;15.68;;;5.30;;
29574;SDS011;16507;51.046;6.406;2023-06-14T06:36:24;13.15;;;4.60;;
29574;SDS011;16507;51.046;6.406;2023-06-14T06:38:49;16.38;;;4.60;;
29574;SDS011;16507;51.046;6.406;2023-06-14T06:41:15;12.85;;;4.45;;
29574;SDS011;16507;51.046;6.406;2023-06-14T06:43:41;6.22;;;3.78;;
29574;SDS011;16507;51.046;6.406;2023-06-14T06:46:07;10.00;;;4.15;;
29574;SDS011;16507;51.046;6.406;2023-06-14T06:48:33;7.93;;;3.20;;
29574;SDS011;16507;51.046;6.406;2023-06-14T06:50:58;5.05;;;2.60;;
29574;SDS011;16507;51.046;6.406;2023-06-14T06:53:24;6.07;;;2.92;;
29574;SDS011;16507;51.046;6.406;2023-06-14T06:55:50;8.77;;;2.85;;
29574;SDS011;16507;51.046;6.406;2023-06-14T06:58:15;12.90;;;3.33;;
29574;SDS011;16507;51.046;6.406;2023-06-14T07:00:41;8.80;;;2.83;;
29574;SDS011;16507;51.046;6.406;2023-06-14T07:03:07;6.32;;;2.72;;
29574;SDS011;16507;51.046;6.406;2023-06-14T07:05:33;6.03;;;3.22;;
29574;SDS011;16507;51.046;6.406;2023-06-14T07:07:58;3.25;;;2.72;;
29574;SDS011;16507;51.046;6.406;2023-06-14T07:10:25;9.23;;;2.95;;
29574;SDS011;16507;51.046;6.406;2023-06-14T07:12:51;10.93;;;2.95;;
29574;SDS011;16507;51.046;6.406;2023-06-14T07:15:16;6.50;;;2.80;;
29574;SDS011;16507;51.046;6.406;2023-06-14T07:17:42;5.57;;;2.53;;
29574;SDS011;16507;51.046;6.406;2023-06-14T07:20:08;7.70;;;2.63;;
29574;SDS011;16507;51.046;6.406;2023-06-14T07:22:37;6.78;;;3.00;;
29574;SDS011;16507;51.046;6.406;2023-06-14T07:25:05;8.82;;;3.13;;
29574;SDS011;16507;51.046;6.406;2023-06-14T07:27:35;5.63;;;2.85;;
29574;SDS011;16507;51.046;6.406;2023-06-14T07:30:01;4.90;;;2.47;;
29574;SDS011;16507;51.046;6.406;2023-06-14T07:32:27;7.13;;;2.70;;
29574;SDS011;16507;51.046;6.406;2023-06-14T07:34:52;14.73;;;3.20;;
29574;SDS011;16507;51.046;6.406;2023-06-14T07:37:18;4.97;;;2.63;;
29574;SDS011;16507;51.046;6.406;2023-06-14T07:39:46;9.40;;;3.25;;
29574;SDS011;16507;51.046;6.406;2023-06-14T07:42:11;7.07;;;2.80;;
29574;SDS011;16507;51.046;6.406;2023-06-14T07:44:37;12.88;;;3.08;;
29574;SDS011;16507;51.046;6.406;2023-06-14T07:47:03;18.38;;;2.88;;
29574;SDS011;16507;51.046;6.406;2023-06-14T07:49:29;6.57;;;2.60;;
29574;SDS011;16507;51.046;6.406;2023-06-14T07:51:55;7.53;;;3.22;;
29574;SDS011;16507;51.046;6.406;2023-06-14T07:54:20;4.75;;;2.50;;
29574;SDS011;16507;51.046;6.406;2023-06-14T07:56:50;8.43;;;2.45;;
29574;SDS011;16507;51.046;6.406;2023-06-14T07:59:16;8.05;;;2.30;;
29574;SDS011;16507;51.046;6.406;2023-06-14T08:01:42;9.80;;;2.50;;
29574;SDS011;16507;51.046;6.406;2023-06-14T08:04:12;4.68;;;2.20;;
29574;SDS011;16507;51.046;6.406;2023-06-14T08:06:38;3.85;;;2.17;;
29574;SDS011;16507;51.046;6.406;2023-06-14T08:09:04;8.18;;;2.60;;
29574;SDS011;16507;51.046;6.406;2023-06-14T08:11:30;3.00;;;1.80;;
29574;SDS011;16507;51.046;6.406;2023-06-14T08:13:56;3.88;;;2.00;;
29574;SDS011;16507;51.046;6.406;2023-06-14T08:16:22;2.45;;;1.80;;
29574;SDS011;16507;51.046;6.406;2023-06-14T08:18:48;4.05;;;2.05;;
29574;SDS011;16507;51.046;6.406;2023-06-14T08:21:14;5.22;;;2.67;;
29574;SDS011;16507;51.046;6.406;2023-06-14T08:23:45;4.97;;;2.50;;
29574;SDS011;16507;51.046;6.406;2023-06-14T08:26:11;7.38;;;2.25;;
29574;SDS011;16507;51.046;6.406;2023-06-14T08:28:37;4.22;;;2.20;;
29574;SDS011;16507;51.046;6.406;2023-06-14T08:31:02;8.68;;;1.80;;
29574;SDS011;16507;51.046;6.406;2023-06-14T08:33:28;5.35;;;1.90;;
29574;SDS011;16507;51.046;6.406;2023-06-14T08:35:53;2.17;;;1.95;;
29574;SDS011;16507;51.046;6.406;2023-06-14T08:38:19;4.75;;;1.77;;
29574;SDS011;16507;51.046;6.406;2023-06-14T08:40:45;4.15;;;1.73;;
29574;SDS011;16507;51.046;6.406;2023-06-14T08:43:15;2.97;;;1.90;;
29574;SDS011;16507;51.046;6.406;2023-06-14T08:45:41;5.70;;;1.80;;
29574;SDS011;16507;51.046;6.406;2023-06-14T08:48:07;1.75;;;1.58;;
29574;SDS011;16507;51.046;6.406;2023-06-14T08:50:36;3.20;;;1.23;;
29574;SDS011;16507;51.046;6.406;2023-06-14T08:53:06;1.77;;;1.67;;
29574;SDS011;16507;51.046;6.406;2023-06-14T08:55:35;1.20;;;1.10;;
29574;SDS011;16507;51.046;6.406;2023-06-14T08:58:04;3.35;;;1.08;;
29574;SDS011;16507;51.046;6.406;2023-06-14T09:00:30;4.00;;;1.10;;
29574;SDS011;16507;51.046;6.406;2023-06-14T09:02:57;1.08;;;0.90;;
29574;SDS011;16507;51.046;6.406;2023-06-14T09:05:27;4.57;;;1.10;;
29574;SDS011;16507;51.046;6.406;2023-06-14T09:07:53;5.95;;;1.25;;
29574;SDS011;16507;51.046;6.406;2023-06-14T09:12:52;1.95;;;1.10;;
29574;SDS011;16507;51.046;6.406;2023-06-14T09:15:18;8.40;;;1.25;;
29574;SDS011;16507;51.046;6.406;2023-06-14T09:17:43;2.90;;;1.35;;
29574;SDS011;16507;51.046;6.406;2023-06-14T09:20:09;1.63;;;1.23;;
29574;SDS011;16507;51.046;6.406;2023-06-14T09:22:36;3.17;;;1.33;;
29574;SDS011;16507;51.046;6.406;2023-06-14T09:25:03;3.80;;;1.50;;
29574;SDS011;16507;51.046;6.406;2023-06-14T09:27:30;11.88;;;1.73;;
29574;SDS011;16507;51.046;6.406;2023-06-14T09:29:56;6.43;;;1.40;;
29574;SDS011;16507;51.046;6.406;2023-06-14T09:32:22;1.55;;;1.45;;
29574;SDS011;16507;51.046;6.406;2023-06-14T09:34:48;8.32;;;1.73;;
29574;SDS011;16507;51.046;6.406;2023-06-14T09:37:29;6.50;;;1.25;;
29574;SDS011;16507;51.046;6.406;2023-06-14T09:39:56;1.30;;;1.20;;
29574;SDS011;16507;51.046;6.406;2023-06-14T09:42:23;3.95;;;1.33;;
29574;SDS011;16507;51.046;6.406;2023-06-14T09:44:53;11.80;;;1.55;;
29574;SDS011;16507;51.046;6.406;2023-06-14T09:47:20;4.13;;;1.00;;
29574;SDS011;16507;51.046;6.406;2023-06-14T09:49:47;2.47;;;0.95;;
29574;SDS011;16507;51.046;6.406;2023-06-14T09:52:14;1.45;;;1.27;;
29574;SDS011;16507;51.046;6.406;2023-06-14T09:54:41;4.15;;;1.48;;
29574;SDS011;16507;51.046;6.406;2023-06-14T09:57:11;7.07;;;1.70;;
29574;SDS011;16507;51.046;6.406;2023-06-14T09:59:40;7.45;;;1.58;;
29574;SDS011;16507;51.046;6.406;2023-06-14T10:02:15;1.90;;;1.50;;
29574;SDS011;16507;51.046;6.406;2023-06-14T10:04:54;7.55;;;1.35;;
29574;SDS011;16507;51.046;6.406;2023-06-14T10:07:25;2.53;;;1.30;;
29574;SDS011;16507;51.046;6.406;2023-06-14T10:09:52;2.40;;;1.17;;
29574;SDS011;16507;51.046;6.406;2023-06-14T10:12:19;2.75;;;1.30;;
29574;SDS011;16507;51.046;6.406;2023-06-14T10:14:49;3.80;;;1.40;;
29574;SDS011;16507;51.046;6.406;2023-06-14T10:17:18;1.35;;;1.10;;
29574;SDS011;16507;51.046;6.406;2023-06-14T10:19:50;9.70;;;1.65;;
29574;SDS011;16507;51.046;6.406;2023-06-14T10:22:42;3.35;;;1.23;;
29574;SDS011;16507;51.046;6.406;2023-06-14T10:25:30;4.47;;;1.20;;
29574;SDS011;16507;51.046;6.406;2023-06-14T10:28:15;8.85;;;0.95;;
29574;SDS011;16507;51.046;6.406;2023-06-14T10:33:49;9.90;;;1.25;;
29574;SDS011;16507;51.046;6.406;2023-06-14T10:41:37;9.23;;;1.60;;
29574;SDS011;16507;51.046;6.406;2023-06-14T10:46:38;5.00;;;1.00;;
29574;SDS011;16507;51.046;6.406;2023-06-14T10:49:16;5.28;;;1.30;;
29574;SDS011;16507;51.046;6.406;2023-06-14T10:52:02;7.43;;;1.65;;
29574;SDS011;16507;51.046;6.406;2023-06-14T10:54:28;8.02;;;1.25;;
29574;SDS011;16507;51.046;6.406;2023-06-14T10:56:53;4.65;;;1.13;;
29574;SDS011;16507;51.046;6.406;2023-06-14T10:59:20;8.55;;;1.02;;
29574;SDS011;16507;51.046;6.406;2023-06-14T11:04:49;9.05;;;1.13;;
29574;SDS011;16507;51.046;6.406;2023-06-14T11:10:32;6.25;;;1.30;;
29574;SDS011;16507;51.046;6.406;2023-06-14T11:13:05;4.85;;;1.27;;
29574;SDS011;16507;51.046;6.406;2023-06-14T11:15:34;1.70;;;1.23;;
29574;SDS011;16507;51.046;6.406;2023-06-14T11:18:05;9.02;;;1.63;;
29574;SDS011;16507;51.046;6.406;2023-06-14T11:20:32;13.65;;;1.95;;
29574;SDS011;16507;51.046;6.406;2023-06-14T11:22:59;3.28;;;1.45;;
29574;SDS011;16507;51.046;6.406;2023-06-14T11:25:25;1.45;;;1.35;;
29574;SDS011;16507;51.046;6.406;2023-06-14T11:27:53;5.95;;;1.48;;
29574;SDS011;16507;51.046;6.406;2023-06-14T11:30:20;5.45;;;1.20;;
29574;SDS011;16507;51.046;6.406;2023-06-14T11:32:46;8.52;;;1.40;;
29574;SDS011;16507;51.046;6.406;2023-06-14T11:35:12;3.92;;;1.10;;
29574;SDS011;16507;51.046;6.406;2023-06-14T11:37:39;3.20;;;1.00;;
29574;SDS011;16507;51.046;6.406;2023-06-14T11:40:07;2.33;;;1.10;;
29574;SDS011;16507;51.046;6.406;2023-06-14T11:42:34;1.27;;;1.00;;
29574;SDS011;16507;51.046;6.406;2023-06-14T11:45:01;5.93;;;1.05;;
29574;SDS011;16507;51.046;6.406;2023-06-14T11:47:34;9.23;;;1.70;;
29574;SDS011;16507;51.046;6.406;2023-06-14T11:50:04;3.58;;;1.13;;
29574;SDS011;16507;51.046;6.406;2023-06-14T11:52:33;5.18;;;1.30;;
29574;SDS011;16507;51.046;6.406;2023-06-14T11:54:59;3.13;;;1.20;;
29574;SDS011;16507;51.046;6.406;2023-06-14T11:57:25;3.35;;;0.90;;
29574;SDS011;16507;51.046;6.406;2023-06-14T11:59:51;3.55;;;1.20;;
29574;SDS011;16507;51.046;6.406;2023-06-14T12:02:18;1.35;;;1.25;;
29574;SDS011;16507;51.046;6.406;2023-06-14T12:04:46;4.28;;;1.10;;
29574;SDS011;16507;51.046;6.406;2023-06-14T12:07:16;1.50;;;1.17;;
29574;SDS011;16507;51.046;6.406;2023-06-14T12:12:22;1.42;;;1.15;;
29574;SDS011;16507;51.046;6.406;2023-06-14T12:14:52;0.98;;;0.90;;
29574;SDS011;16507;51.046;6.406;2023-06-14T12:17:21;3.17;;;1.27;;
29574;SDS011;16507;51.046;6.406;2023-06-14T12:19:48;6.72;;;1.30;;
29574;SDS011;16507;51.046;6.406;2023-06-14T12:22:14;1.85;;;1.38;;
29574;SDS011;16507;51.046;6.406;2023-06-14T12:24:44;4.68;;;1.30;;
29574;SDS011;16507;51.046;6.406;2023-06-14T12:27:10;4.68;;;1.27;;
29574;SDS011;16507;51.046;6.406;2023-06-14T12:29:40;2.58;;;1.25;;
29574;SDS011;16507;51.046;6.406;2023-06-14T12:32:10;3.00;;;1.48;;
29574;SDS011;16507;51.046;6.406;2023-06-14T12:34:36;1.23;;;1.13;;
29574;SDS011;16507;51.046;6.406;2023-06-14T12:37:02;3.78;;;1.30;;
29574;SDS011;16507;51.046;6.406;2023-06-14T12:39:31;2.55;;;1.40;;
29574;SDS011;16507;51.046;6.406;2023-06-14T12:41:57;1.35;;;1.25;;
29574;SDS011;16507;51.046;6.406;2023-06-14T12:44:24;3.40;;;1.52;;
29574;SDS011;16507;51.046;6.406;2023-06-14T12:46:52;1.35;;;1.10;;
29574;SDS011;16507;51.046;6.406;2023-06-14T12:49:19;3.90;;;1.50;;
29574;SDS011;16507;51.046;6.406;2023-06-14T12:51:45;2.50;;;1.20;;
29574;SDS011;16507;51.046;6.406;2023-06-14T12:54:13;18.38;;;1.75;;
29574;SDS011;16507;51.046;6.406;2023-06-14T12:56:39;1.50;;;1.40;;
29574;SDS011;16507;51.046;6.406;2023-06-14T12:59:06;5.20;;;1.73;;
29574;SDS011;16507;51.046;6.406;2023-06-14T13:01:32;9.15;;;1.52;;
29574;SDS011;16507;51.046;6.406;2023-06-14T13:03:58;4.75;;;1.40;;
29574;SDS011;16507;51.046;6.406;2023-06-14T13:06:23;6.03;;;1.13;;
29574;SDS011;16507;51.046;6.406;2023-06-14T13:08:50;1.42;;;1.13;;
29574;SDS011;16507;51.046;6.406;2023-06-14T13:11:15;2.30;;;1.50;;
29574;SDS011;16507;51.046;6.406;2023-06-14T13:13:41;2.13;;;1.23;;
29574;SDS011;16507;51.046;6.406;2023-06-14T13:16:07;1.92;;;1.10;;
29574;SDS011;16507;51.046;6.406;2023-06-14T13:18:32;4.75;;;1.17;;
29574;SDS011;16507;51.046;6.406;2023-06-14T13:20:58;4.70;;;1.23;;
29574;SDS011;16507;51.046;6.406;2023-06-14T13:23:24;2.53;;;1.20;;
29574;SDS011;16507;51.046;6.406;2023-06-14T13:25:49;2.15;;;1.15;;
29574;SDS011;16507;51.046;6.406;2023-06-14T13:28:16;3.30;;;1.20;;
29574;SDS011;16507;51.046;6.406;2023-06-14T13:30:41;3.35;;;1.17;;
29574;SDS011;16507;51.046;6.406;2023-06-14T13:33:07;4.38;;;1.27;;
29574;SDS011;16507;51.046;6.406;2023-06-14T13:35:33;3.15;;;1.52;;
29574;SDS011;16507;51.046;6.406;2023-06-14T13:37:58;5.15;;;1.02;;
29574;SDS011;16507;51.046;6.406;2023-06-14T13:40:24;4.35;;;1.08;;
29574;SDS011;16507;51.046;6.406;2023-06-14T13:42:50;5.70;;;1.02;;
29574;SDS011;16507;51.046;6.406;2023-06-14T13:45:16;7.28;;;1.13;;
29574;SDS011;16507;51.046;6.406;2023-06-14T13:47:42;5.85;;;1.05;;
29574;SDS011;16507;51.046;6.406;2023-06-14T13:50:08;5.07;;;1.02;;
29574;SDS011;16507;51.046;6.406;2023-06-14T13:52:33;2.67;;;0.90;;
29574;SDS011;16507;51.046;6.406;2023-06-14T13:54:59;1.80;;;1.00;;
29574;SDS011;16507;51.046;6.406;2023-06-14T13:57:26;1.25;;;1.10;;
29574;SDS011;16507;51.046;6.406;2023-06-14T13:59:54;6.70;;;1.30;;
29574;SDS011;16507;51.046;6.406;2023-06-14T14:02:25;3.45;;;1.08;;
29574;SDS011;16507;51.046;6.406;2023-06-14T14:04:52;5.55;;;1.05;;
29574;SDS011;16507;51.046;6.406;2023-06-14T14:07:18;3.10;;;1.10;;
29574;SDS011;16507;51.046;6.406;2023-06-14T14:09:45;4.20;;;1.10;;
29574;SDS011;16507;51.046;6.406;2023-06-14T14:12:11;1.75;;;0.80;;
29574;SDS011;16507;51.046;6.406;2023-06-14T14:14:36;3.25;;;0.93;;
29574;SDS011;16507;51.046;6.406;2023-06-14T14:17:02;4.50;;;0.90;;
29574;SDS011;16507;51.046;6.406;2023-06-14T14:19:28;1.35;;;1.10;;
29574;SDS011;16507;51.046;6.406;2023-06-14T14:21:53;2.17;;;0.80;;
29574;SDS011;16507;51.046;6.406;2023-06-14T14:24:19;2.13;;;0.80;;
29574;SDS011;16507;51.046;6.406;2023-06-14T14:26:44;5.18;;;0.98;;
29574;SDS011;16507;51.046;6.406;2023-06-14T14:29:13;7.32;;;1.00;;
29574;SDS011;16507;51.046;6.406;2023-06-14T14:31:39;10.45;;;1.33;;
29574;SDS011;16507;51.046;6.406;2023-06-14T14:34:05;13.50;;;1.33;;
29574;SDS011;16507;51.046;6.406;2023-06-14T14:36:30;2.88;;;0.75;;
29574;SDS011;16507;51.046;6.406;2023-06-14T14:38:58;4.30;;;1.08;;
29574;SDS011;16507;51.046;6.406;2023-06-14T14:41:23;2.72;;;0.85;;
29574;SDS011;16507;51.046;6.406;2023-06-14T14:43:49;7.88;;;0.90;;
29574;SDS011;16507;51.046;6.406;2023-06-14T14:46:15;2.75;;;1.02;;
29574;SDS011;16507;51.046;6.406;2023-06-14T14:48:41;3.05;;;0.90;;
29574;SDS011;16507;51.046;6.406;2023-06-14T14:51:07;2.95;;;0.85;;
29574;SDS011;16507;51.046;6.406;2023-06-14T14:53:33;3.65;;;0.77;;
29574;SDS011;16507;51.046;6.406;2023-06-14T14:55:58;3.70;;;0.90;;
29574;SDS011;16507;51.046;6.406;2023-06-14T14:58:24;2.47;;;0.88;;
29574;SDS011;16507;51.046;6.406;2023-06-14T15:00:50;1.52;;;1.00;;
29574;SDS011;16507;51.046;6.406;2023-06-14T15:03:16;0.70;;;0.70;;
29574;SDS011;16507;51.046;6.406;2023-06-14T15:05:41;3.92;;;1.10;;
29574;SDS011;16507;51.046;6.406;2023-06-14T15:08:07;0.98;;;0.80;;